Time;durP1;ratioP1;P1;durP2;ratioP2;P2;SDS_P1;SDS_P2;PMS_P1;PMS_P2;Temp;Humidity;BMP_temperature;BMP_pressure;BME280_temperature;BME280_humidity;BME280_pressure;Samples;Min_cycle;Max_cycle;Signal;HPM_P1;HPM_P2
2023/09/30 00:01:22;;;;;;;24.00;10.48;;;;;;;;;;5074458;28;20085;-75
2023/09/30 00:03:48;;;;;;;23.83;11.27;;;;;;;;;;5074343;28;20103;-76
2023/09/30 00:06:14;;;;;;;23.95;11.05;;;;;;;;;;5089710;28;20069;-75
2023/09/30 00:08:41;;;;;;;23.75;11.38;;;;;;;;;;5096260;28;20454;-76
2023/09/30 00:11:07;;;;;;;24.38;11.48;;;;;;;;;;5094818;28;20020;-76
2023/09/30 00:13:34;;;;;;;24.35;10.95;;;;;;;;;;5094754;28;20410;-76
2023/09/30 00:16:00;;;;;;;25.90;11.60;;;;;;;;;;5085508;28;20111;-76
2023/09/30 00:18:27;;;;;;;26.30;11.38;;;;;;;;;;5082984;28;20036;-76
2023/09/30 00:20:53;;;;;;;23.60;10.90;;;;;;;;;;5078195;28;20099;-76
2023/09/30 00:23:21;;;;;;;24.75;11.15;;;;;;;;;;5073899;28;20426;-76
2023/09/30 00:25:48;;;;;;;24.63;11.45;;;;;;;;;;5074468;28;20119;-76
2023/09/30 00:28:14;;;;;;;21.40;9.32;;;;;;;;;;5074402;28;20040;-75
2023/09/30 00:30:40;;;;;;;19.30;9.43;;;;;;;;;;5075472;28;20095;-76
2023/09/30 00:33:06;;;;;;;19.95;9.30;;;;;;;;;;5082959;28;20025;-74
2023/09/30 00:35:33;;;;;;;18.05;7.85;;;;;;;;;;5082030;28;20032;-75
2023/09/30 00:37:59;;;;;;;17.73;8.13;;;;;;;;;;5073716;28;20025;-76
2023/09/30 00:40:25;;;;;;;15.00;7.63;;;;;;;;;;5073080;28;20094;-76
2023/09/30 00:42:51;;;;;;;30.35;11.70;;;;;;;;;;5071838;28;20063;-75
2023/09/30 00:45:17;;;;;;;23.27;10.48;;;;;;;;;;5073331;28;20025;-75
2023/09/30 00:47:44;;;;;;;22.25;11.02;;;;;;;;;;5088955;28;20459;-76
2023/09/30 00:50:12;;;;;;;17.52;9.20;;;;;;;;;;5087982;28;20029;-76
2023/09/30 00:52:38;;;;;;;19.98;10.02;;;;;;;;;;5072753;28;20746;-76
2023/09/30 00:55:05;;;;;;;18.98;8.68;;;;;;;;;;5072978;28;20028;-76
2023/09/30 00:57:32;;;;;;;17.60;8.77;;;;;;;;;;5084324;28;20074;-76
2023/09/30 00:59:58;;;;;;;16.88;8.52;;;;;;;;;;5093256;28;20026;-76
2023/09/30 01:02:24;;;;;;;15.38;8.48;;;;;;;;;;5092832;28;20071;-76
2023/09/30 01:04:51;;;;;;;16.27;7.70;;;;;;;;;;5093405;28;20070;-76
2023/09/30 01:07:17;;;;;;;14.65;7.20;;;;;;;;;;5086333;28;20025;-75
2023/09/30 01:09:43;;;;;;;12.93;7.00;;;;;;;;;;5072741;28;20025;-75
2023/09/30 01:12:10;;;;;;;14.10;7.47;;;;;;;;;;5075496;28;20077;-74
2023/09/30 01:14:40;;;;;;;12.73;7.03;;;;;;;;;;5073935;28;20028;-75
2023/09/30 01:17:13;;;;;;;14.77;6.50;;;;;;;;;;5072765;28;20028;-76
2023/09/30 01:19:39;;;;;;;13.90;6.65;;;;;;;;;;5072715;28;20103;-76
2023/09/30 01:22:05;;;;;;;11.15;6.18;;;;;;;;;;5072159;28;20039;-76
2023/09/30 01:24:31;;;;;;;13.60;7.00;;;;;;;;;;5081878;28;20081;-76
2023/09/30 01:26:57;;;;;;;14.00;7.20;;;;;;;;;;5092591;28;20410;-76
2023/09/30 01:29:26;;;;;;;15.57;7.10;;;;;;;;;;5092664;28;20024;-75
2023/09/30 01:31:52;;;;;;;14.27;7.20;;;;;;;;;;5092960;28;20050;-75
2023/09/30 01:34:18;;;;;;;15.02;8.25;;;;;;;;;;5091143;28;20024;-75
2023/09/30 01:36:44;;;;;;;16.88;7.90;;;;;;;;;;5092926;28;20032;-75
2023/09/30 01:39:11;;;;;;;14.60;7.50;;;;;;;;;;5091305;28;20386;-75
2023/09/30 01:41:38;;;;;;;15.77;7.88;;;;;;;;;;5090875;28;20032;-76
2023/09/30 01:44:04;;;;;;;15.35;7.13;;;;;;;;;;5092773;28;20024;-75
2023/09/30 01:46:31;;;;;;;15.77;7.78;;;;;;;;;;5073576;28;20029;-77
2023/09/30 01:48:57;;;;;;;16.60;8.95;;;;;;;;;;5072639;28;20028;-76
2023/09/30 01:51:23;;;;;;;15.95;7.93;;;;;;;;;;5073926;28;20379;-76
2023/09/30 01:53:49;;;;;;;17.50;7.57;;;;;;;;;;5072908;28;20100;-74
2023/09/30 01:56:15;;;;;;;16.58;8.60;;;;;;;;;;5087006;28;20363;-74
2023/09/30 01:58:42;;;;;;;17.45;8.98;;;;;;;;;;5092271;28;20046;-74
2023/09/30 02:01:08;;;;;;;14.10;7.75;;;;;;;;;;5094208;28;20078;-75
2023/09/30 02:03:35;;;;;;;12.63;6.55;;;;;;;;;;5093522;28;20053;-75
2023/09/30 02:06:01;;;;;;;17.67;8.38;;;;;;;;;;5081657;28;20020;-74
2023/09/30 02:08:27;;;;;;;15.95;7.90;;;;;;;;;;5072282;28;20042;-76
2023/09/30 02:10:53;;;;;;;20.25;9.32;;;;;;;;;;5071850;28;20036;-76
2023/09/30 02:13:20;;;;;;;17.90;8.68;;;;;;;;;;5073483;28;20024;-77
2023/09/30 02:15:46;;;;;;;18.63;8.75;;;;;;;;;;5079490;28;20027;-76
2023/09/30 02:18:12;;;;;;;15.13;8.40;;;;;;;;;;5091165;28;20074;-75
2023/09/30 02:20:41;;;;;;;18.10;8.65;;;;;;;;;;5092396;28;20019;-76
2023/09/30 02:23:08;;;;;;;16.23;8.60;;;;;;;;;;5092680;28;20359;-74
2023/09/30 02:25:34;;;;;;;18.73;9.70;;;;;;;;;;5090610;28;20016;-75
2023/09/30 02:28:00;;;;;;;19.55;9.77;;;;;;;;;;5070910;28;20036;-75
2023/09/30 02:30:27;;;;;;;20.02;9.38;;;;;;;;;;5084007;28;20008;-74
2023/09/30 02:32:53;;;;;;;15.75;8.45;;;;;;;;;;5094682;28;20021;-74
2023/09/30 02:35:20;;;;;;;15.55;8.07;;;;;;;;;;5089427;28;20028;-76
2023/09/30 02:37:46;;;;;;;18.92;8.57;;;;;;;;;;5090182;28;20067;-75
2023/09/30 02:40:14;;;;;;;16.45;8.75;;;;;;;;;;5100288;28;20032;-76
2023/09/30 02:42:41;;;;;;;18.73;8.95;;;;;;;;;;5106095;28;20028;-75
2023/09/30 02:45:08;;;;;;;14.63;7.63;;;;;;;;;;5102194;28;20019;-75
2023/09/30 02:47:34;;;;;;;13.57;6.88;;;;;;;;;;5090820;28;20382;-74
2023/09/30 02:50:01;;;;;;;16.17;7.68;;;;;;;;;;5081834;28;20029;-75
2023/09/30 02:52:31;;;;;;;15.32;8.45;;;;;;;;;;5080869;28;20036;-74
2023/09/30 02:54:57;;;;;;;15.27;7.43;;;;;;;;;;5075799;28;20024;-75
2023/09/30 02:57:23;;;;;;;14.70;7.18;;;;;;;;;;5080558;28;20077;-75
2023/09/30 02:59:51;;;;;;;18.20;8.25;;;;;;;;;;5092230;28;20024;-76
2023/09/30 03:02:18;;;;;;;18.35;9.10;;;;;;;;;;5091135;28;20490;-75
2023/09/30 03:04:44;;;;;;;19.83;9.70;;;;;;;;;;5092522;28;20016;-76
2023/09/30 03:07:11;;;;;;;19.35;8.95;;;;;;;;;;5095772;28;20024;-76
2023/09/30 03:09:38;;;;;;;18.23;8.63;;;;;;;;;;5077065;28;20017;-75
2023/09/30 03:12:04;;;;;;;18.88;9.30;;;;;;;;;;5076095;28;20372;-76
2023/09/30 03:14:30;;;;;;;16.13;7.95;;;;;;;;;;5074967;28;20483;-76
2023/09/30 03:16:57;;;;;;;17.77;9.05;;;;;;;;;;5074876;28;20028;-76
2023/09/30 03:19:23;;;;;;;14.65;7.85;;;;;;;;;;5093585;28;20036;-75
2023/09/30 03:21:50;;;;;;;13.93;7.03;;;;;;;;;;5095194;28;20551;-76
2023/09/30 03:24:16;;;;;;;13.23;6.50;;;;;;;;;;5095225;28;20028;-77
2023/09/30 03:26:43;;;;;;;14.82;7.20;;;;;;;;;;5095473;28;20024;-75
2023/09/30 03:29:10;;;;;;;11.70;6.93;;;;;;;;;;5080899;28;20021;-76
2023/09/30 03:31:36;;;;;;;19.73;9.30;;;;;;;;;;5074036;28;20028;-75
2023/09/30 03:34:03;;;;;;;16.42;8.05;;;;;;;;;;5076585;28;20024;-75
2023/09/30 03:36:30;;;;;;;22.65;10.30;;;;;;;;;;5076965;28;20028;-75
2023/09/30 03:38:58;;;;;;;21.38;9.30;;;;;;;;;;5083470;28;20071;-76
2023/09/30 03:41:24;;;;;;;20.98;9.32;;;;;;;;;;5094337;28;20032;-76
2023/09/30 03:43:51;;;;;;;18.20;8.90;;;;;;;;;;5094647;28;20020;-76
2023/09/30 03:46:17;;;;;;;17.15;8.38;;;;;;;;;;5094473;28;20020;-76
2023/09/30 03:48:44;;;;;;;15.55;7.80;;;;;;;;;;5089681;28;20020;-75
2023/09/30 03:51:14;;;;;;;15.15;7.55;;;;;;;;;;5074481;28;20024;-75
2023/09/30 03:53:44;;;;;;;14.60;7.50;;;;;;;;;;5074084;28;20025;-75
2023/09/30 03:56:13;;;;;;;12.75;7.00;;;;;;;;;;5073971;28;20394;-76
2023/09/30 03:58:43;;;;;;;12.60;6.47;;;;;;;;;;5074595;28;20021;-76
2023/09/30 04:01:19;;;;;;;10.90;6.38;;;;;;;;;;5094088;28;20027;-74
2023/09/30 04:03:45;;;;;;;10.07;5.45;;;;;;;;;;5094388;28;20044;-75
2023/09/30 04:06:12;;;;;;;10.65;6.00;;;;;;;;;;5094355;28;20024;-76
2023/09/30 04:08:38;;;;;;;9.05;4.95;;;;;;;;;;5094222;28;20482;-75
2023/09/30 04:11:04;;;;;;;8.43;5.25;;;;;;;;;;5075718;28;20039;-75
2023/09/30 04:13:30;;;;;;;11.63;6.00;;;;;;;;;;5081084;28;20036;-75
2023/09/30 04:15:58;;;;;;;11.43;6.13;;;;;;;;;;5098186;28;20020;-75
2023/09/30 04:18:26;;;;;;;11.73;5.75;;;;;;;;;;5100103;28;20075;-75
2023/09/30 04:20:52;;;;;;;10.68;5.80;;;;;;;;;;5102934;28;20047;-76
2023/09/30 04:23:20;;;;;;;12.00;6.20;;;;;;;;;;5104915;28;20061;-75
2023/09/30 04:25:46;;;;;;;9.88;5.82;;;;;;;;;;5110795;28;20016;-76
2023/09/30 04:28:13;;;;;;;11.15;5.10;;;;;;;;;;5089582;28;20150;-75
2023/09/30 04:30:40;;;;;;;10.10;5.25;;;;;;;;;;5085628;28;20021;-77
2023/09/30 04:33:06;;;;;;;10.35;5.35;;;;;;;;;;5073645;28;20020;-76
2023/09/30 04:35:32;;;;;;;9.68;5.10;;;;;;;;;;5074981;28;20024;-76
2023/09/30 04:38:01;;;;;;;10.05;5.60;;;;;;;;;;5097220;28;20028;-75
2023/09/30 04:40:27;;;;;;;11.75;6.90;;;;;;;;;;5077897;28;20040;-76
2023/09/30 04:42:59;;;;;;;14.50;7.65;;;;;;;;;;5073402;28;20100;-76
2023/09/30 04:45:26;;;;;;;;;;;;;;;;;;5077066;28;20021;-76
2023/09/30 04:47:52;;;;;;;16.80;8.20;;;;;;;;;;5083377;28;19908;-76
2023/09/30 04:50:21;;;;;;;15.07;7.93;;;;;;;;;;5093391;28;20123;-75
2023/09/30 04:52:47;;;;;;;14.52;7.20;;;;;;;;;;5092182;28;20024;-75
2023/09/30 04:55:16;;;;;;;17.33;8.05;;;;;;;;;;5093545;28;20395;-76
2023/09/30 04:57:47;;;;;;;15.70;7.78;;;;;;;;;;5078162;28;20032;-74
2023/09/30 05:00:14;;;;;;;16.27;7.82;;;;;;;;;;5076944;28;20353;-75
2023/09/30 05:02:40;;;;;;;16.13;7.90;;;;;;;;;;5071606;28;20029;-76
2023/09/30 05:05:06;;;;;;;15.70;7.35;;;;;;;;;;5071547;28;20020;-76
2023/09/30 05:07:33;;;;;;;13.48;7.13;;;;;;;;;;5083673;28;20479;-76
2023/09/30 05:09:59;;;;;;;12.57;6.72;;;;;;;;;;5086784;28;20021;-76
2023/09/30 05:12:25;;;;;;;14.32;7.20;;;;;;;;;;5072839;28;20048;-76
2023/09/30 05:14:52;;;;;;;15.68;7.22;;;;;;;;;;5073281;28;20027;-76
2023/09/30 05:17:18;;;;;;;21.50;10.43;;;;;;;;;;5081048;28;20447;-75
2023/09/30 05:19:44;;;;;;;20.58;8.65;;;;;;;;;;5093943;28;20379;-76
2023/09/30 05:22:10;;;;;;;21.02;8.52;;;;;;;;;;5091603;28;20024;-77
2023/09/30 05:24:37;;;;;;;17.95;8.13;;;;;;;;;;5092140;28;20078;-76
2023/09/30 05:27:03;;;;;;;23.88;10.20;;;;;;;;;;5092131;28;20469;-76
2023/09/30 05:29:33;;;;;;;21.40;9.88;;;;;;;;;;5072925;28;20035;-76
2023/09/30 05:31:59;;;;;;;18.92;8.40;;;;;;;;;;5072619;28;20428;-76
2023/09/30 05:34:25;;;;;;;20.20;8.70;;;;;;;;;;5072453;28;20021;-76
2023/09/30 05:36:51;;;;;;;17.10;8.02;;;;;;;;;;5072310;28;20031;-75
2023/09/30 05:39:19;;;;;;;17.73;7.80;;;;;;;;;;5072320;28;20035;-76
2023/09/30 05:41:46;;;;;;;15.70;7.10;;;;;;;;;;5071816;28;20052;-75
2023/09/30 05:44:14;;;;;;;13.65;6.88;;;;;;;;;;5072771;28;20020;-76
2023/09/30 05:46:40;;;;;;;17.58;7.68;;;;;;;;;;5071259;28;20052;-76
2023/09/30 05:49:11;;;;;;;19.83;8.32;;;;;;;;;;5084814;28;20027;-76
2023/09/30 05:51:37;;;;;;;20.02;9.80;;;;;;;;;;5092407;28;20024;-76
2023/09/30 05:54:04;;;;;;;17.80;7.88;;;;;;;;;;5092435;28;20028;-76
2023/09/30 05:56:31;;;;;;;19.83;8.65;;;;;;;;;;5092505;28;20024;-76
2023/09/30 05:58:57;;;;;;;14.68;7.80;;;;;;;;;;5084387;28;20024;-75
2023/09/30 06:01:23;;;;;;;24.23;9.50;;;;;;;;;;5071950;28;20356;-75
2023/09/30 06:03:49;;;;;;;22.35;9.60;;;;;;;;;;5070884;28;20021;-76
2023/09/30 06:06:15;;;;;;;19.25;9.52;;;;;;;;;;5072342;28;20020;-77
2023/09/30 06:08:45;;;;;;;17.15;8.13;;;;;;;;;;5072420;28;20104;-75
2023/09/30 06:11:24;;;;;;;17.30;8.25;;;;;;;;;;5071984;28;20027;-75
2023/09/30 06:13:50;;;;;;;22.52;10.77;;;;;;;;;;5072050;28;20028;-75
2023/09/30 06:16:17;;;;;;;18.15;8.88;;;;;;;;;;5071708;28;20365;-76
2023/09/30 06:18:45;;;;;;;18.17;8.80;;;;;;;;;;5072363;28;20447;-75
2023/09/30 06:21:11;;;;;;;18.27;8.80;;;;;;;;;;5092303;28;20028;-76
2023/09/30 06:23:37;;;;;;;19.98;9.25;;;;;;;;;;5092200;28;20031;-75
2023/09/30 06:26:03;;;;;;;20.38;8.93;;;;;;;;;;5092246;28;20091;-75
2023/09/30 06:28:31;;;;;;;22.15;9.10;;;;;;;;;;5092171;28;20407;-75
2023/09/30 06:30:57;;;;;;;16.83;8.55;;;;;;;;;;5075654;28;20017;-75
2023/09/30 06:33:25;;;;;;;19.60;9.10;;;;;;;;;;5070162;28;20032;-75
2023/09/30 06:35:51;;;;;;;19.75;9.30;;;;;;;;;;5072338;28;20035;-75
2023/09/30 06:38:18;;;;;;;18.15;7.85;;;;;;;;;;5072074;28;20021;-76
2023/09/30 06:40:46;;;;;;;18.10;8.55;;;;;;;;;;5078569;28;20033;-76
2023/09/30 06:43:15;;;;;;;20.45;8.40;;;;;;;;;;5080257;28;20037;-75
2023/09/30 06:45:41;;;;;;;17.92;7.22;;;;;;;;;;5076015;28;20012;-76
2023/09/30 06:48:12;;;;;;;16.77;7.47;;;;;;;;;;5075328;28;20016;-76
2023/09/30 06:50:38;;;;;;;14.32;7.38;;;;;;;;;;5082771;28;20252;-74
2023/09/30 06:53:05;;;;;;;12.98;6.35;;;;;;;;;;5095376;28;20036;-75
2023/09/30 06:55:31;;;;;;;14.55;6.63;;;;;;;;;;5095581;28;20016;-75
2023/09/30 06:57:57;;;;;;;11.57;6.28;;;;;;;;;;5095769;28;20024;-76
2023/09/30 07:00:25;;;;;;;15.20;7.22;;;;;;;;;;5095548;28;20040;-75
2023/09/30 07:02:51;;;;;;;11.48;5.72;;;;;;;;;;5095749;28;20539;-76
2023/09/30 07:05:17;;;;;;;17.90;7.07;;;;;;;;;;5095513;28;20032;-76
2023/09/30 07:07:43;;;;;;;11.85;5.28;;;;;;;;;;5095396;28;20111;-75
2023/09/30 07:10:11;;;;;;;12.90;5.90;;;;;;;;;;5095644;28;20026;-74
2023/09/30 07:12:37;;;;;;;8.63;4.75;;;;;;;;;;5094548;28;20055;-75
2023/09/30 07:15:04;;;;;;;10.32;4.68;;;;;;;;;;5095269;28;20024;-75
2023/09/30 07:17:30;;;;;;;11.68;5.68;;;;;;;;;;5094696;28;20020;-75
2023/09/30 07:19:56;;;;;;;11.48;5.95;;;;;;;;;;5095541;28;20386;-75
2023/09/30 07:22:22;;;;;;;10.38;5.70;;;;;;;;;;5081292;28;20063;-76
2023/09/30 07:24:49;;;;;;;11.05;5.60;;;;;;;;;;5074647;28;20032;-76
2023/09/30 07:27:16;;;;;;;10.68;5.00;;;;;;;;;;5075459;28;20073;-76
2023/09/30 07:29:44;;;;;;;10.93;4.97;;;;;;;;;;5075307;28;20023;-76
2023/09/30 07:32:10;;;;;;;11.82;4.78;;;;;;;;;;5075571;28;20472;-77
2023/09/30 07:34:36;;;;;;;7.10;4.15;;;;;;;;;;5076266;28;20040;-75
2023/09/30 07:37:02;;;;;;;7.18;3.83;;;;;;;;;;5075712;28;20028;-74
2023/09/30 07:39:30;;;;;;;14.65;5.13;;;;;;;;;;5076375;28;20033;-75
2023/09/30 07:41:56;;;;;;;12.70;5.28;;;;;;;;;;5079218;28;20472;-76
2023/09/30 07:44:22;;;;;;;11.23;5.32;;;;;;;;;;5096000;28;20039;-75
2023/09/30 07:46:48;;;;;;;11.18;6.07;;;;;;;;;;5095214;28;20386;-76
2023/09/30 07:49:14;;;;;;;11.30;5.53;;;;;;;;;;5095839;28;20081;-76
2023/09/30 07:51:40;;;;;;;9.88;4.60;;;;;;;;;;5095440;28;20046;-76
2023/09/30 07:54:07;;;;;;;12.90;6.72;;;;;;;;;;5074556;28;20039;-75
2023/09/30 07:56:34;;;;;;;12.63;5.75;;;;;;;;;;5075624;28;20082;-76
2023/09/30 07:59:00;;;;;;;9.95;4.88;;;;;;;;;;5075339;28;20024;-75
2023/09/30 08:01:26;;;;;;;13.35;6.30;;;;;;;;;;5076457;28;20114;-77
2023/09/30 08:03:52;;;;;;;13.35;5.70;;;;;;;;;;5076896;28;20021;-77
2023/09/30 08:06:18;;;;;;;12.48;5.45;;;;;;;;;;5076280;28;20020;-77
2023/09/30 08:08:44;;;;;;;13.02;5.32;;;;;;;;;;5076049;28;20055;-76
2023/09/30 08:11:13;;;;;;;15.45;6.68;;;;;;;;;;5076911;28;20029;-78
2023/09/30 08:13:39;;;;;;;10.85;5.55;;;;;;;;;;5075696;28;20028;-76
2023/09/30 08:16:05;;;;;;;14.75;6.53;;;;;;;;;;5079756;28;20464;-77
2023/09/30 08:18:33;;;;;;;10.82;5.22;;;;;;;;;;5085583;28;20021;-77
2023/09/30 08:20:59;;;;;;;11.18;5.38;;;;;;;;;;5082112;28;20480;-77
2023/09/30 08:23:25;;;;;;;16.35;6.75;;;;;;;;;;5085440;28;20381;-77
2023/09/30 08:25:51;;;;;;;15.02;6.80;;;;;;;;;;5099262;28;20045;-77
2023/09/30 08:28:17;;;;;;;12.75;6.60;;;;;;;;;;5100357;28;20035;-78
2023/09/30 08:30:44;;;;;;;12.40;6.35;;;;;;;;;;5101238;28;20016;-77
2023/09/30 08:33:10;;;;;;;14.43;7.20;;;;;;;;;;5099031;28;20024;-76
2023/09/30 08:35:38;;;;;;;15.13;7.30;;;;;;;;;;5075307;28;20028;-76
2023/09/30 08:38:04;;;;;;;16.92;7.32;;;;;;;;;;5074756;28;20025;-75
2023/09/30 08:40:30;;;;;;;15.60;7.20;;;;;;;;;;5074656;28;20060;-77
2023/09/30 08:42:56;;;;;;;16.92;6.65;;;;;;;;;;5075650;28;20025;-76
2023/09/30 08:45:23;;;;;;;13.02;6.47;;;;;;;;;;5082377;28;20017;-76
2023/09/30 08:47:50;;;;;;;15.20;7.10;;;;;;;;;;5089023;28;20071;-76
2023/09/30 08:50:16;;;;;;;13.27;5.40;;;;;;;;;;5083198;28;20021;-77
2023/09/30 08:52:44;;;;;;;13.32;6.43;;;;;;;;;;5090680;28;20061;-76
2023/09/30 08:55:11;;;;;;;13.27;6.75;;;;;;;;;;5094052;28;20047;-75
2023/09/30 08:57:42;;;;;;;16.50;7.43;;;;;;;;;;5095454;28;20069;-75
2023/09/30 09:00:12;;;;;;;11.32;6.22;;;;;;;;;;5099687;28;20024;-75
2023/09/30 09:02:39;;;;;;;15.27;7.95;;;;;;;;;;5098948;28;20032;-75
2023/09/30 09:05:06;;;;;;;13.20;6.72;;;;;;;;;;5099249;28;20040;-75
2023/09/30 09:07:33;;;;;;;15.65;7.70;;;;;;;;;;5102915;28;20020;-76
2023/09/30 09:10:09;;;;;;;12.63;6.18;;;;;;;;;;5095763;28;20367;-76
2023/09/30 09:12:36;;;;;;;13.50;6.65;;;;;;;;;;5087304;28;20562;-76
2023/09/30 09:15:03;;;;;;;14.90;6.50;;;;;;;;;;5084489;28;20410;-76
2023/09/30 09:17:42;;;;;;;11.43;5.70;;;;;;;;;;5090009;28;20020;-76
2023/09/30 09:20:10;;;;;;;11.32;5.60;;;;;;;;;;5090175;28;20020;-76
2023/09/30 09:22:40;;;;;;;14.85;8.50;;;;;;;;;;5095743;28;20028;-76
2023/09/30 09:25:07;;;;;;;11.43;6.65;;;;;;;;;;5104508;28;20035;-75
2023/09/30 09:27:36;;;;;;;10.45;5.35;;;;;;;;;;5101674;28;20061;-76
2023/09/30 09:30:21;;;;;;;8.52;5.28;;;;;;;;;;5095988;28;20020;-76
2023/09/30 09:32:54;;;;;;;9.57;4.90;;;;;;;;;;5094634;28;20024;-76
2023/09/30 09:35:21;;;;;;;9.15;4.88;;;;;;;;;;5095406;28;20371;-76
2023/09/30 09:38:06;;;;;;;11.70;5.63;;;;;;;;;;5094543;28;20080;-76
2023/09/30 09:40:33;;;;;;;10.20;5.93;;;;;;;;;;5093465;28;20032;-76
2023/09/30 09:43:02;;;;;;;9.70;5.40;;;;;;;;;;5091327;28;20518;-77
2023/09/30 09:45:31;;;;;;;10.07;5.35;;;;;;;;;;5095453;28;20103;-75
2023/09/30 09:47:58;;;;;;;8.88;4.93;;;;;;;;;;5094917;28;20020;-76
2023/09/30 09:50:24;;;;;;;12.07;6.65;;;;;;;;;;5095471;28;20024;-76
2023/09/30 09:52:51;;;;;;;12.38;6.50;;;;;;;;;;5093467;28;20046;-76
2023/09/30 09:55:22;;;;;;;11.30;5.93;;;;;;;;;;5075137;28;20069;-77
2023/09/30 09:57:48;;;;;;;10.27;5.93;;;;;;;;;;5074912;28;20043;-76
2023/09/30 10:00:23;;;;;;;10.00;5.65;;;;;;;;;;5075134;28;20084;-76
2023/09/30 10:02:50;;;;;;;8.98;5.25;;;;;;;;;;5074108;28;20522;-76
2023/09/30 10:05:16;;;;;;;8.80;4.32;;;;;;;;;;5092327;28;20032;-75
2023/09/30 10:07:52;;;;;;;10.35;5.18;;;;;;;;;;5094754;28;20382;-75
2023/09/30 10:10:20;;;;;;;10.15;5.55;;;;;;;;;;5094491;28;20028;-75
2023/09/30 10:12:46;;;;;;;10.10;5.55;;;;;;;;;;5094453;28;20372;-75
2023/09/30 10:15:25;;;;;;;8.32;5.00;;;;;;;;;;5097016;28;20051;-76
2023/09/30 10:18:03;;;;;;;8.77;4.20;;;;;;;;;;5098685;28;20058;-75
2023/09/30 10:20:30;;;;;;;8.70;5.00;;;;;;;;;;5099084;28;20024;-76
2023/09/30 10:23:24;;;;;;;10.50;5.18;;;;;;;;;;5097920;28;20107;-77
2023/09/30 10:25:51;;;;;;;9.55;4.75;;;;;;;;;;5078918;28;20078;-75
2023/09/30 10:28:33;;;;;;;10.88;5.15;;;;;;;;;;5076402;28;20028;-77
2023/09/30 10:31:24;;;;;;;9.00;5.28;;;;;;;;;;5076607;28;20032;-76
2023/09/30 10:34:02;;;;;;;8.63;5.00;;;;;;;;;;5078000;28;20533;-76
2023/09/30 10:36:29;;;;;;;9.07;4.90;;;;;;;;;;5096749;28;20039;-75
2023/09/30 10:38:55;;;;;;;7.03;3.67;;;;;;;;;;5096831;28;20028;-75
2023/09/30 10:41:40;;;;;;;8.27;4.30;;;;;;;;;;5095867;28;20043;-75
2023/09/30 10:44:28;;;;;;;7.35;4.80;;;;;;;;;;5097082;28;20016;-75
2023/09/30 10:46:56;;;;;;;7.43;3.78;;;;;;;;;;5076863;28;20047;-74
2023/09/30 10:49:22;;;;;;;7.72;4.43;;;;;;;;;;5079307;28;20028;-74
2023/09/30 10:51:49;;;;;;;7.45;3.50;;;;;;;;;;5088425;28;20021;-74
2023/09/30 10:54:23;;;;;;;8.35;4.28;;;;;;;;;;5080519;28;20152;-76
2023/09/30 10:56:49;;;;;;;7.85;4.28;;;;;;;;;;5076360;28;20024;-76
2023/09/30 10:59:25;;;;;;;6.93;4.20;;;;;;;;;;5076264;28;20025;-75
2023/09/30 11:01:52;;;;;;;9.63;4.43;;;;;;;;;;5075765;28;20016;-76
2023/09/30 11:04:19;;;;;;;7.85;4.20;;;;;;;;;;5076154;28;20036;-76
2023/09/30 11:06:45;;;;;;;5.75;3.25;;;;;;;;;;5090212;28;20086;-76
2023/09/30 11:09:16;;;;;;;7.28;3.97;;;;;;;;;;5097611;28;20381;-76
2023/09/30 11:11:48;;;;;;;6.83;3.67;;;;;;;;;;5096020;28;20489;-75
2023/09/30 11:14:14;;;;;;;;;;;;;;;;;;5097751;28;20035;-76
2023/09/30 11:16:43;;;;;;;8.50;4.45;;;;;;;;;;5096972;28;19916;-76
2023/09/30 11:19:09;;;;;;;7.97;4.32;;;;;;;;;;5098370;28;20051;-76
2023/09/30 11:21:35;;;;;;;7.00;4.32;;;;;;;;;;5097492;28;20153;-75
2023/09/30 11:24:02;;;;;;;10.48;4.32;;;;;;;;;;5097894;28;20028;-75
2023/09/30 11:26:34;;;;;;;8.63;4.40;;;;;;;;;;5091205;28;20098;-76
2023/09/30 11:29:13;;;;;;;7.72;4.15;;;;;;;;;;5075907;28;20024;-76
2023/09/30 11:31:43;;;;;;;7.55;4.05;;;;;;;;;;5075856;28;20031;-75
2023/09/30 11:34:09;;;;;;;5.68;3.75;;;;;;;;;;5076050;28;20023;-75
2023/09/30 11:36:37;;;;;;;8.40;4.93;;;;;;;;;;5079689;28;20501;-76
2023/09/30 11:39:03;;;;;;;16.38;7.82;;;;;;;;;;5096054;28;20026;-76
2023/09/30 11:41:38;;;;;;;16.98;8.68;;;;;;;;;;5095703;28;20093;-75
2023/09/30 11:44:14;;;;;;;16.45;7.90;;;;;;;;;;5095971;28;20016;-76
2023/09/30 11:46:57;;;;;;;11.82;6.25;;;;;;;;;;5093358;28;20043;-75
2023/09/30 11:49:40;;;;;;;13.60;6.82;;;;;;;;;;5076204;28;20027;-75
2023/09/30 11:52:10;;;;;;;14.07;6.95;;;;;;;;;;5075721;28;20025;-76
2023/09/30 11:54:41;;;;;;;11.15;6.18;;;;;;;;;;5075446;28;20021;-75
2023/09/30 11:57:11;;;;;;;13.95;7.57;;;;;;;;;;5077799;28;20024;-76
2023/09/30 11:59:37;;;;;;;17.75;8.77;;;;;;;;;;5096036;28;20035;-75
2023/09/30 12:02:05;;;;;;;13.30;7.30;;;;;;;;;;5096059;28;20073;-75
2023/09/30 12:04:32;;;;;;;15.05;7.32;;;;;;;;;;5096161;28;20103;-76
2023/09/30 12:06:58;;;;;;;13.75;7.47;;;;;;;;;;5096509;28;20032;-76
2023/09/30 12:09:27;;;;;;;14.25;7.45;;;;;;;;;;5078626;28;20056;-75
2023/09/30 12:11:53;;;;;;;15.70;7.72;;;;;;;;;;5076140;28;20046;-75
2023/09/30 12:14:20;;;;;;;14.10;8.10;;;;;;;;;;5075982;28;20029;-75
2023/09/30 12:16:47;;;;;;;16.55;7.97;;;;;;;;;;5078631;28;20494;-75
2023/09/30 12:19:15;;;;;;;12.38;6.70;;;;;;;;;;5090409;28;20036;-76
2023/09/30 12:21:41;;;;;;;13.63;6.88;;;;;;;;;;5099221;28;20432;-76
2023/09/30 12:24:09;;;;;;;12.77;5.47;;;;;;;;;;5097573;28;20020;-76
2023/09/30 12:26:36;;;;;;;11.13;5.90;;;;;;;;;;5097221;28;20080;-76
2023/09/30 12:29:03;;;;;;;12.70;6.72;;;;;;;;;;5087631;28;20077;-77
2023/09/30 12:31:29;;;;;;;11.90;6.05;;;;;;;;;;5077210;28;20356;-76
2023/09/30 12:33:55;;;;;;;10.68;6.13;;;;;;;;;;5076713;28;20029;-76
2023/09/30 12:36:22;;;;;;;9.35;5.90;;;;;;;;;;5085142;28;20100;-76
2023/09/30 12:38:48;;;;;;;10.93;5.88;;;;;;;;;;5092422;28;20039;-76
2023/09/30 12:41:19;;;;;;;12.30;6.95;;;;;;;;;;5101774;28;20148;-74
2023/09/30 12:43:45;;;;;;;11.77;6.05;;;;;;;;;;5090097;28;20024;-74
2023/09/30 12:46:13;;;;;;;10.70;6.15;;;;;;;;;;5082666;28;20024;-75
2023/09/30 12:48:39;;;;;;;9.90;5.53;;;;;;;;;;5086162;28;20073;-76
2023/09/30 12:51:06;;;;;;;11.80;5.75;;;;;;;;;;5103722;28;20099;-75
2023/09/30 12:53:33;;;;;;;8.95;5.30;;;;;;;;;;5105729;28;20111;-76
2023/09/30 12:55:59;;;;;;;10.15;5.88;;;;;;;;;;5106898;28;20054;-74
2023/09/30 12:58:27;;;;;;;9.32;5.53;;;;;;;;;;5107270;28;20024;-76
2023/09/30 13:00:54;;;;;;;10.25;5.72;;;;;;;;;;5105357;28;20073;-75
2023/09/30 13:03:20;;;;;;;9.52;5.57;;;;;;;;;;5107859;28;20024;-75
2023/09/30 13:05:46;;;;;;;12.50;6.95;;;;;;;;;;5102857;28;20016;-75
2023/09/30 13:08:12;;;;;;;15.35;7.82;;;;;;;;;;5099999;28;20043;-76
2023/09/30 13:10:39;;;;;;;16.20;8.82;;;;;;;;;;5088925;28;20032;-75
2023/09/30 13:13:05;;;;;;;16.63;9.10;;;;;;;;;;5079749;28;20035;-76
2023/09/30 13:15:31;;;;;;;14.00;8.27;;;;;;;;;;5080077;28;20024;-76
2023/09/30 13:17:58;;;;;;;15.40;9.00;;;;;;;;;;5079919;28;20026;-76
2023/09/30 13:20:25;;;;;;;14.52;7.60;;;;;;;;;;5077935;28;20063;-76
2023/09/30 13:22:51;;;;;;;14.27;8.07;;;;;;;;;;5078096;28;20033;-75
2023/09/30 13:25:17;;;;;;;14.85;8.00;;;;;;;;;;5077816;28;20027;-75
2023/09/30 13:27:43;;;;;;;14.23;7.72;;;;;;;;;;5077750;28;20104;-76
2023/09/30 13:30:10;;;;;;;13.55;7.43;;;;;;;;;;5079353;28;20047;-76
2023/09/30 13:32:36;;;;;;;13.82;7.05;;;;;;;;;;5079643;28;20028;-76
2023/09/30 13:35:06;;;;;;;11.55;6.30;;;;;;;;;;5080145;28;20091;-76
2023/09/30 13:37:33;;;;;;;12.00;6.55;;;;;;;;;;5080982;28;20020;-75
2023/09/30 13:40:02;;;;;;;10.88;5.90;;;;;;;;;;5081120;28;20107;-76
2023/09/30 13:42:29;;;;;;;12.38;6.55;;;;;;;;;;5092547;28;20052;-74
2023/09/30 13:44:57;;;;;;;12.50;6.38;;;;;;;;;;5081665;28;20028;-75
2023/09/30 13:47:23;;;;;;;10.68;6.28;;;;;;;;;;5075241;28;20025;-75
2023/09/30 13:49:49;;;;;;;11.90;6.30;;;;;;;;;;5073056;28;20032;-77
2023/09/30 13:52:15;;;;;;;14.55;7.15;;;;;;;;;;5083339;28;20039;-77
2023/09/30 13:54:41;;;;;;;15.18;7.00;;;;;;;;;;5094051;28;20028;-75
2023/09/30 13:57:07;;;;;;;14.25;7.68;;;;;;;;;;5094576;28;20096;-76
2023/09/30 13:59:35;;;;;;;15.30;8.07;;;;;;;;;;5094233;28;20065;-75
2023/09/30 14:02:01;;;;;;;14.85;7.57;;;;;;;;;;5085381;28;20036;-76
2023/09/30 14:04:27;;;;;;;14.90;7.30;;;;;;;;;;5072319;28;20024;-76
2023/09/30 14:06:53;;;;;;;12.90;7.35;;;;;;;;;;5073662;28;20082;-76
2023/09/30 14:09:19;;;;;;;13.20;6.95;;;;;;;;;;5073797;28;20031;-76
2023/09/30 14:11:45;;;;;;;11.95;6.50;;;;;;;;;;5075653;28;20036;-76
2023/09/30 14:14:11;;;;;;;9.13;5.22;;;;;;;;;;5093529;28;20491;-76
2023/09/30 14:16:37;;;;;;;13.52;7.38;;;;;;;;;;5097890;28;20088;-75
2023/09/30 14:19:03;;;;;;;15.73;8.18;;;;;;;;;;5099473;28;20096;-75
2023/09/30 14:21:32;;;;;;;15.05;8.20;;;;;;;;;;5104339;28;20046;-75
2023/09/30 14:23:58;;;;;;;13.80;7.75;;;;;;;;;;5109732;28;20024;-75
2023/09/30 14:26:24;;;;;;;15.32;7.68;;;;;;;;;;5108013;28;20032;-76
2023/09/30 14:28:51;;;;;;;16.73;8.35;;;;;;;;;;5094192;28;20066;-76
2023/09/30 14:31:17;;;;;;;16.75;6.93;;;;;;;;;;5093178;28;20020;-77
2023/09/30 14:33:43;;;;;;;12.55;6.43;;;;;;;;;;5094290;28;20035;-75